Sontag, MS (39665)

07:17 CDT le 05 septembre 2015 (GMT -0500)
Stronghope | | Change Station
CLOSE
Current Station
Stations météorologiques personnelles
Location: Wesson, MS
Altitude: 269 ft
Stations météo à proximité

Alt. 269 ft 31.72 °N, 90.24 °W | Updated 29 seconds ago

Ciel dégagé
Ciel dégagé
72.2 ° F
Paraît 72.2 ° F
N
0.0
Vent Variable Vent de Ouest
Gusts 0.0 mph

Aujourd'hui
Haut(e) -- | Bas -- ° F
--% Risque de précip.
Hier
Haut(e) -- | Bas -- ° F
Precip. -- pouce
6:38 AM 7:19 PM
Lune gibbeuse décroissante, 49% visible
Pression 30.02 pouce
Visibilité 10.0 Miles terrestres
Nuages Ciel dégagé
Point de rosée 71 ° F
Humidité 97%
Précipitations 0.00 pouce
Profondeur de la couche neigeuse Non disponible.
UV 0 sur 12
Pollen 9.60 sur 12
Qualité de l'air Non disponible.
Flu Activity Non disponible.
METAR KMCB 051153Z AUTO 00000KT 10SM CLR 23/23 A3004 RMK AO2 SLP166 T02330233 10239 20211 53009
Pression 30.02 pouce
Visibilité 10.0 Miles terrestres
Nuages Ciel dégagé
Point de rosée 71 ° F
Humidité 97%
Précipitations 0.00 pouce
Profondeur de la couche neigeuse Non disponible.
UV 0 sur 12
Pollen 9.60 sur 12
Qualité de l'air Non disponible.
Flu Activity Non disponible.
METAR KMCB 051153Z AUTO 00000KT 10SM CLR 23/23 A3004 RMK AO2 SLP166 T02330233 10239 20211 53009

10-Day Weather Forecast

×

Almanac

Astronomie

Sep. 05, 2015 Lever Coucher
Temps réel
Crépuscule civil
Crépuscule nautique
Crépuscule astronomique
Lune
Durée de lumière visible
Longueur du jour
Tomorrow will be .
, % of the Moon is Illuminated

Extrêmes aujourd'hui

State Highs State Lows

Community

WunderPhotos

Upload Photos

1,852,455 Photos téléchargées !

WunderBlogs® & News

Nearby

Qualité de l'air

  Qualité de l'air Indice de la qualité de l'air Polluant
Not available.

Épaisseur de neige

Station Depth Altitude

Activité sismique

Ville Distance Mag. Time & Date
Minimum magnitude displayed is 2.5.

Températures des eaux côtières

Lieu Température

Stations

Stations météo à proximité

Emplacement de la station Température Refroidissement éolien Point de rosée Humidité Vent Precip. Alt. Mise à jour Type